createdAt,value
2019-06-20T00:00:53.588Z,0.00
2019-06-20T00:01:53.580Z,0.00
2019-06-20T00:02:53.573Z,0.00
2019-06-20T00:03:53.565Z,0.00
2019-06-20T00:04:53.558Z,0.00
2019-06-20T00:05:53.551Z,0.00
2019-06-20T00:06:53.547Z,0.00
2019-06-20T00:07:53.534Z,0.00
2019-06-20T00:08:53.527Z,0.00
2019-06-20T00:09:53.519Z,0.00
2019-06-20T00:10:53.512Z,0.00
2019-06-20T00:11:53.508Z,0.00
2019-06-20T00:13:00.597Z,0.00
2019-06-20T00:13:53.490Z,0.00
2019-06-20T00:14:53.484Z,0.00
2019-06-20T00:15:53.476Z,0.00
2019-06-20T00:16:53.467Z,0.00
2019-06-20T00:17:53.459Z,0.00
2019-06-20T00:18:53.450Z,0.00
2019-06-20T00:19:53.444Z,0.00
2019-06-20T00:20:53.436Z,0.00
2019-06-20T00:21:53.427Z,0.00
2019-06-20T00:22:53.419Z,0.00
2019-06-20T00:23:53.411Z,0.00
2019-06-20T00:24:53.405Z,0.00
2019-06-20T00:25:53.396Z,0.00
2019-06-20T00:26:53.390Z,0.00
2019-06-20T00:27:53.382Z,0.00
2019-06-20T00:28:53.374Z,0.00
2019-06-20T00:29:53.369Z,0.00
2019-06-20T00:30:53.360Z,0.00
2019-06-20T00:31:53.349Z,0.00
2019-06-20T00:32:53.342Z,0.00
2019-06-20T00:33:53.347Z,0.00
2019-06-20T00:34:53.326Z,0.00
2019-06-20T00:35:53.318Z,0.00
2019-06-20T00:36:53.312Z,0.00
2019-06-20T00:37:53.304Z,0.00
2019-06-20T00:38:53.296Z,0.00
2019-06-20T00:39:53.287Z,0.00
2019-06-20T00:40:53.281Z,0.00
2019-06-20T00:41:53.274Z,0.00
2019-06-20T00:42:53.264Z,0.00
2019-06-20T00:43:53.259Z,0.00
2019-06-20T00:44:53.249Z,0.00
2019-06-20T00:45:53.245Z,0.00
2019-06-20T00:46:53.235Z,0.00
2019-06-20T00:47:53.226Z,0.00
2019-06-20T00:48:53.217Z,0.00
2019-06-20T00:49:53.211Z,0.00
2019-06-20T00:50:53.201Z,0.00
2019-06-20T00:51:53.203Z,0.00
2019-06-20T00:52:53.186Z,0.00
2019-06-20T00:53:53.189Z,0.00
2019-06-20T00:54:53.183Z,0.00
2019-06-20T00:55:53.166Z,0.00
2019-06-20T00:56:53.155Z,0.00
2019-06-20T00:57:53.147Z,0.00
2019-06-20T00:58:53.143Z,0.00
2019-06-20T00:59:53.133Z,0.00
2019-06-20T01:00:53.124Z,0.00
2019-06-20T01:01:53.119Z,0.00
2019-06-20T01:02:53.110Z,0.00
2019-06-20T01:03:53.102Z,0.00
2019-06-20T01:04:53.095Z,0.00
2019-06-20T01:05:53.085Z,0.00
2019-06-20T01:06:53.081Z,0.00
2019-06-20T01:07:53.071Z,0.00
2019-06-20T01:08:53.066Z,0.00
2019-06-20T01:09:53.055Z,0.00
2019-06-20T01:10:53.046Z,0.00
2019-06-20T01:11:53.040Z,0.00
2019-06-20T01:12:53.040Z,0.00
2019-06-20T01:13:53.097Z,0.00
2019-06-20T01:14:53.017Z,0.00
2019-06-20T01:15:53.022Z,0.00
2019-06-20T01:16:53.001Z,0.00
2019-06-20T01:17:52.997Z,0.00
2019-06-20T01:18:52.986Z,0.00
2019-06-20T01:19:52.978Z,0.00
2019-06-20T01:20:52.972Z,0.00
2019-06-20T01:21:52.966Z,0.00
2019-06-20T01:22:52.967Z,0.00
2019-06-20T01:23:52.948Z,0.00
2019-06-20T01:24:52.941Z,0.00
2019-06-20T01:25:52.934Z,0.00
2019-06-20T01:26:52.926Z,0.00
2019-06-20T01:27:52.918Z,0.00
2019-06-20T01:28:52.912Z,0.00
2019-06-20T01:29:52.904Z,0.00
2019-06-20T01:30:52.896Z,0.00
2019-06-20T01:31:52.888Z,0.00
2019-06-20T01:32:52.881Z,0.00
2019-06-20T01:33:52.874Z,0.00
2019-06-20T01:34:52.866Z,0.00
2019-06-20T01:35:52.859Z,0.00
2019-06-20T01:36:52.851Z,0.00
2019-06-20T01:37:52.844Z,0.00
2019-06-20T01:38:52.836Z,0.00
2019-06-20T01:39:52.893Z,0.00
2019-06-20T01:40:52.822Z,0.00
2019-06-20T01:41:52.816Z,0.00
2019-06-20T01:42:52.806Z,0.00
2019-06-20T01:43:52.800Z,0.00
2019-06-20T01:44:52.791Z,0.00
2019-06-20T01:45:52.784Z,0.00
2019-06-20T01:46:52.777Z,0.00
2019-06-20T01:47:52.776Z,0.00
2019-06-20T01:48:52.763Z,0.00
2019-06-20T01:49:52.754Z,0.00
2019-06-20T01:50:52.746Z,0.00
2019-06-20T01:51:52.740Z,0.00
2019-06-20T01:52:52.732Z,0.00
2019-06-20T01:53:52.724Z,0.00
2019-06-20T01:54:52.717Z,0.00
2019-06-20T01:55:52.710Z,0.00
2019-06-20T01:56:52.701Z,0.00
2019-06-20T01:57:52.693Z,0.00
2019-06-20T01:58:52.688Z,0.00
2019-06-20T01:59:52.680Z,0.00
2019-06-20T02:00:52.676Z,0.00
2019-06-20T02:01:52.672Z,0.00
2019-06-20T02:02:52.660Z,0.00
2019-06-20T02:03:52.649Z,0.00
2019-06-20T02:04:52.646Z,0.00
2019-06-20T02:05:52.636Z,0.00
2019-06-20T02:06:52.630Z,0.00
2019-06-20T02:07:52.619Z,0.00
2019-06-20T02:08:52.612Z,0.00
2019-06-20T02:09:52.608Z,0.00
2019-06-20T02:10:52.599Z,0.00
2019-06-20T02:11:52.589Z,0.00
2019-06-20T02:12:52.582Z,0.00
2019-06-20T02:14:06.386Z,0.00
2019-06-20T02:14:52.566Z,0.00
2019-06-20T02:15:52.559Z,0.00
2019-06-20T02:16:52.554Z,0.00
2019-06-20T02:17:52.547Z,0.00
2019-06-20T02:18:52.541Z,0.00
2019-06-20T02:19:52.530Z,0.00
2019-06-20T02:20:52.522Z,0.00
2019-06-20T02:21:52.546Z,0.00
2019-06-20T02:22:52.507Z,0.00
2019-06-20T02:23:52.500Z,0.00
2019-06-20T02:24:52.493Z,0.00
2019-06-20T02:25:52.485Z,0.00
2019-06-20T02:26:52.478Z,0.00
2019-06-20T02:27:52.519Z,0.00
2019-06-20T02:28:52.473Z,0.00
2019-06-20T02:29:52.456Z,0.00
2019-06-20T02:30:52.451Z,0.00
2019-06-20T02:31:52.457Z,0.00
2019-06-20T02:32:52.438Z,0.00
2019-06-20T02:33:52.427Z,0.00
2019-06-20T02:34:52.420Z,0.00
2019-06-20T02:35:52.414Z,0.00
2019-06-20T02:36:52.409Z,0.00
2019-06-20T02:37:52.399Z,0.00
2019-06-20T02:38:52.395Z,0.00
2019-06-20T02:39:52.384Z,0.00
2019-06-20T02:40:52.382Z,0.00
2019-06-20T02:41:52.369Z,0.00
2019-06-20T02:42:52.364Z,0.00
2019-06-20T02:43:52.355Z,0.00
2019-06-20T02:44:52.347Z,0.00
2019-06-20T02:45:52.341Z,0.00
2019-06-20T02:46:52.332Z,0.00
2019-06-20T02:47:52.327Z,0.00
2019-06-20T02:48:52.319Z,0.00
2019-06-20T02:49:52.311Z,0.00
2019-06-20T02:50:52.303Z,0.00
2019-06-20T02:51:52.295Z,0.00
2019-06-20T02:52:52.288Z,0.00
2019-06-20T02:53:52.289Z,0.00
2019-06-20T02:54:52.272Z,0.00
2019-06-20T02:55:52.265Z,0.00
2019-06-20T02:56:52.259Z,0.00
2019-06-20T02:57:52.253Z,0.00
2019-06-20T02:58:52.244Z,0.00
2019-06-20T02:59:52.236Z,0.00
2019-06-20T03:00:52.232Z,0.00
2019-06-20T03:01:52.223Z,0.00
2019-06-20T03:02:52.214Z,0.00
2019-06-20T03:03:52.208Z,0.00
2019-06-20T03:04:52.200Z,0.00
2019-06-20T03:05:52.193Z,0.00
2019-06-20T03:06:52.189Z,0.00
2019-06-20T03:07:52.180Z,0.00
2019-06-20T03:08:52.174Z,0.00
2019-06-20T03:09:52.171Z,0.00
2019-06-20T03:10:52.156Z,0.00
2019-06-20T03:11:52.214Z,0.00
2019-06-20T03:12:52.150Z,0.00
2019-06-20T03:13:52.133Z,0.00
2019-06-20T03:14:52.126Z,0.00
2019-06-20T03:15:52.118Z,0.00
2019-06-20T03:16:52.115Z,0.00
2019-06-20T03:17:52.104Z,0.00
2019-06-20T03:18:52.096Z,0.00
2019-06-20T03:19:52.089Z,0.00
2019-06-20T03:20:52.091Z,0.00
2019-06-20T03:21:52.105Z,0.00
2019-06-20T03:22:52.066Z,0.00
2019-06-20T03:23:52.066Z,0.00
2019-06-20T03:24:52.052Z,5.63
2019-06-20T03:25:52.046Z,5.63
2019-06-20T03:26:52.037Z,5.63
2019-06-20T03:27:52.031Z,11.25
2019-06-20T03:28:52.023Z,11.25
2019-06-20T03:29:52.019Z,11.25
2019-06-20T03:30:52.013Z,11.25
2019-06-20T03:31:52.002Z,11.25
2019-06-20T03:32:51.995Z,16.88
2019-06-20T03:33:51.986Z,16.88
2019-06-20T03:34:51.980Z,16.88
2019-06-20T03:35:51.970Z,16.88
2019-06-20T03:36:51.962Z,16.88
2019-06-20T03:37:51.957Z,22.50
2019-06-20T03:38:51.947Z,22.50
2019-06-20T03:39:51.951Z,22.50
2019-06-20T03:40:51.933Z,22.50
2019-06-20T03:41:51.925Z,22.50
2019-06-20T03:42:51.918Z,22.50
2019-06-20T03:43:51.911Z,22.50
2019-06-20T03:45:01.692Z,28.13
2019-06-20T03:45:51.894Z,28.13
2019-06-20T03:46:51.886Z,28.13
2019-06-20T03:47:51.883Z,28.13
2019-06-20T03:48:51.871Z,33.75
2019-06-20T03:49:51.864Z,33.75
2019-06-20T03:50:51.863Z,33.75
2019-06-20T03:51:51.875Z,39.38
2019-06-20T03:52:51.841Z,45.00
2019-06-20T03:53:51.836Z,45.00
2019-06-20T03:54:51.825Z,39.38
2019-06-20T03:55:51.818Z,39.38
2019-06-20T03:56:51.810Z,39.38
2019-06-20T03:57:51.804Z,45.00
2019-06-20T03:58:51.794Z,45.00
2019-06-20T03:59:51.787Z,45.00
2019-06-20T04:00:51.781Z,45.00
2019-06-20T04:01:51.774Z,50.63
2019-06-20T04:02:51.766Z,50.63
2019-06-20T04:03:51.756Z,39.38
2019-06-20T04:04:51.753Z,33.75
2019-06-20T04:05:51.742Z,39.38
2019-06-20T04:06:51.746Z,45.00
2019-06-20T04:07:51.729Z,45.00
2019-06-20T04:08:51.718Z,56.25
2019-06-20T04:09:51.711Z,56.25
2019-06-20T04:10:51.703Z,61.88
2019-06-20T04:11:51.697Z,67.50
2019-06-20T04:12:51.689Z,61.88
2019-06-20T04:13:51.681Z,67.50
2019-06-20T04:14:51.672Z,78.75
2019-06-20T04:15:51.676Z,84.38
2019-06-20T04:16:51.658Z,84.38
2019-06-20T04:17:51.653Z,90.00
2019-06-20T04:18:51.642Z,95.63
2019-06-20T04:19:51.635Z,101.25
2019-06-20T04:20:51.627Z,101.25
2019-06-20T04:21:51.622Z,101.25
2019-06-20T04:22:51.611Z,101.25
2019-06-20T04:23:51.605Z,112.50
2019-06-20T04:24:51.598Z,106.88
2019-06-20T04:25:51.590Z,118.13
2019-06-20T04:26:51.581Z,123.75
2019-06-20T04:27:51.575Z,129.38
2019-06-20T04:28:51.567Z,129.38
2019-06-20T04:29:51.561Z,129.38
2019-06-20T04:30:51.553Z,123.75
2019-06-20T04:31:51.552Z,123.75
2019-06-20T04:32:51.544Z,129.38
2019-06-20T04:33:51.533Z,112.50
2019-06-20T04:34:51.522Z,106.88
2019-06-20T04:35:51.519Z,123.75
2019-06-20T04:36:51.508Z,140.63
2019-06-20T04:37:51.501Z,146.25
2019-06-20T04:38:51.496Z,146.25
2019-06-20T04:39:51.500Z,191.25
2019-06-20T04:40:51.478Z,140.63
2019-06-20T04:41:51.471Z,118.13
2019-06-20T04:42:51.463Z,135.00
2019-06-20T04:43:51.458Z,135.00
2019-06-20T04:44:51.451Z,135.00
2019-06-20T04:45:51.441Z,146.25
2019-06-20T04:46:51.432Z,163.13
2019-06-20T04:47:51.434Z,168.75
2019-06-20T04:48:51.419Z,168.75
2019-06-20T04:49:51.411Z,157.50
2019-06-20T04:50:51.403Z,157.50
2019-06-20T04:51:51.399Z,151.88
2019-06-20T04:52:51.390Z,151.88
2019-06-20T04:53:51.381Z,129.38
2019-06-20T04:54:51.375Z,95.63
2019-06-20T04:55:51.374Z,78.75
2019-06-20T04:56:51.361Z,84.38
2019-06-20T04:57:51.352Z,90.00
2019-06-20T04:58:51.345Z,67.50
2019-06-20T04:59:51.337Z,73.13
2019-06-20T05:00:51.330Z,90.00
2019-06-20T05:01:51.322Z,95.63
2019-06-20T05:02:51.315Z,129.38
2019-06-20T05:03:51.325Z,163.13
2019-06-20T05:04:51.302Z,180.00
2019-06-20T05:05:51.292Z,191.25
2019-06-20T05:06:51.285Z,219.38
2019-06-20T05:07:51.276Z,219.38
2019-06-20T05:08:51.270Z,213.75
2019-06-20T05:09:51.263Z,225.00
2019-06-20T05:10:51.254Z,241.88
2019-06-20T05:11:51.248Z,230.63
2019-06-20T05:12:51.245Z,236.25
2019-06-20T05:13:51.234Z,270.00
2019-06-20T05:14:51.230Z,236.25
2019-06-20T05:15:52.926Z,225.00
2019-06-20T05:16:51.210Z,180.00
2019-06-20T05:17:51.365Z,208.13
2019-06-20T05:18:51.198Z,174.38
2019-06-20T05:19:51.191Z,180.00
2019-06-20T05:20:51.181Z,202.50
2019-06-20T05:21:51.190Z,196.88
2019-06-20T05:22:51.166Z,208.13
2019-06-20T05:23:51.159Z,230.63
2019-06-20T05:24:51.152Z,281.25
2019-06-20T05:25:51.146Z,275.63
2019-06-20T05:26:51.147Z,320.63
2019-06-20T05:27:51.130Z,298.13
2019-06-20T05:28:51.125Z,247.50
2019-06-20T05:29:51.116Z,219.38
2019-06-20T05:30:51.109Z,196.88
2019-06-20T05:31:51.102Z,236.25
2019-06-20T05:32:51.096Z,230.63
2019-06-20T05:33:51.088Z,208.13
2019-06-20T05:34:51.082Z,219.38
2019-06-20T05:35:51.074Z,219.38
2019-06-20T05:36:51.069Z,213.75
2019-06-20T05:37:51.059Z,208.13
2019-06-20T05:38:51.052Z,196.88
2019-06-20T05:39:51.048Z,213.75
2019-06-20T05:40:51.042Z,230.63
2019-06-20T05:41:51.031Z,253.13
2019-06-20T05:42:51.023Z,247.50
2019-06-20T05:43:51.016Z,253.13
2019-06-20T05:44:51.009Z,253.13
2019-06-20T05:45:51.002Z,292.50
2019-06-20T05:46:50.995Z,320.63
2019-06-20T05:47:50.987Z,309.38
2019-06-20T05:48:50.986Z,337.50
2019-06-20T05:49:50.974Z,371.25
2019-06-20T05:50:50.965Z,416.25
2019-06-20T05:51:51.011Z,438.75
2019-06-20T05:52:50.953Z,438.75
2019-06-20T05:53:50.946Z,438.75
2019-06-20T05:54:50.938Z,450.00
2019-06-20T05:55:50.930Z,438.75
2019-06-20T05:56:50.944Z,376.88
2019-06-20T05:57:50.917Z,331.88
2019-06-20T05:58:50.909Z,365.63
2019-06-20T05:59:50.905Z,388.13
2019-06-20T06:00:50.897Z,371.25
2019-06-20T06:01:50.890Z,326.25
2019-06-20T06:02:50.887Z,348.75
2019-06-20T06:03:51.324Z,354.38
2019-06-20T06:04:50.872Z,360.00
2019-06-20T06:05:50.863Z,399.38
2019-06-20T06:06:50.934Z,421.88
2019-06-20T06:07:50.849Z,438.75
2019-06-20T06:08:51.893Z,461.25
2019-06-20T06:09:50.837Z,478.13
2019-06-20T06:10:50.833Z,489.38
2019-06-20T06:11:51.951Z,495.00
2019-06-20T06:12:50.817Z,495.00
2019-06-20T06:13:50.810Z,506.25
2019-06-20T06:14:50.802Z,500.63
2019-06-20T06:15:50.798Z,478.13
2019-06-20T06:16:50.789Z,483.75
2019-06-20T06:17:50.798Z,478.13
2019-06-20T06:18:50.777Z,489.38
2019-06-20T06:19:50.834Z,500.63
2019-06-20T06:20:50.766Z,523.13
2019-06-20T06:21:50.759Z,540.00
2019-06-20T06:22:50.750Z,540.00
2019-06-20T06:23:50.759Z,534.38
2019-06-20T06:24:50.759Z,517.50
2019-06-20T06:25:50.740Z,506.25
2019-06-20T06:26:50.727Z,495.00
2019-06-20T06:27:50.720Z,495.00
2019-06-20T06:28:50.715Z,511.88
2019-06-20T06:29:50.713Z,545.63
2019-06-20T06:30:50.706Z,573.75
2019-06-20T06:31:50.697Z,590.63
2019-06-20T06:32:50.695Z,613.13
2019-06-20T06:33:50.685Z,635.63
2019-06-20T06:34:50.680Z,652.50
2019-06-20T06:35:50.673Z,680.63
2019-06-20T06:36:50.668Z,708.75
2019-06-20T06:37:50.685Z,731.25
2019-06-20T06:38:50.655Z,736.88
2019-06-20T06:39:50.650Z,720.00
2019-06-20T06:40:50.644Z,646.88
2019-06-20T06:41:50.639Z,556.88
2019-06-20T06:42:50.634Z,500.63
2019-06-20T06:43:50.628Z,438.75
2019-06-20T06:44:50.623Z,405.00
2019-06-20T06:45:50.618Z,461.25
2019-06-20T06:46:55.463Z,528.75
2019-06-20T06:47:50.608Z,556.88
2019-06-20T06:48:50.603Z,551.25
2019-06-20T06:49:50.598Z,562.50
2019-06-20T06:50:50.589Z,613.13
2019-06-20T06:51:50.586Z,590.63
2019-06-20T06:52:50.581Z,585.00
2019-06-20T06:53:50.576Z,686.25
2019-06-20T06:54:50.568Z,815.63
2019-06-20T06:55:50.563Z,810.00
2019-06-20T06:56:50.558Z,759.38
2019-06-20T06:57:50.662Z,821.25
2019-06-20T06:58:50.547Z,860.63
2019-06-20T06:59:50.542Z,849.38
2019-06-20T07:00:50.537Z,843.75
2019-06-20T07:01:50.537Z,810.00
2019-06-20T07:02:50.529Z,787.50
2019-06-20T07:03:50.525Z,736.88
2019-06-20T07:04:50.519Z,708.75
2019-06-20T07:05:50.513Z,736.88
2019-06-20T07:06:50.507Z,731.25
2019-06-20T07:07:50.509Z,658.13
2019-06-20T07:08:50.499Z,562.50
2019-06-20T07:09:50.494Z,478.13
2019-06-20T07:10:50.491Z,523.13
2019-06-20T07:11:50.484Z,714.38
2019-06-20T07:12:50.479Z,1102.50
2019-06-20T07:13:50.475Z,1288.13
2019-06-20T07:14:50.471Z,742.50
2019-06-20T07:15:50.469Z,1254.38
2019-06-20T07:16:59.688Z,900.00
2019-06-20T07:17:50.455Z,1125.00
2019-06-20T07:18:50.463Z,1192.50
2019-06-20T07:19:50.449Z,1096.88
2019-06-20T07:20:50.444Z,978.75
2019-06-20T07:21:50.440Z,900.00
2019-06-20T07:22:50.438Z,849.38
2019-06-20T07:23:50.431Z,1406.25
2019-06-20T07:24:50.429Z,1721.25
2019-06-20T07:25:50.424Z,2424.38
2019-06-20T07:26:50.421Z,1035.00
2019-06-20T07:27:50.420Z,1282.50
2019-06-20T07:28:51.615Z,1158.75
2019-06-20T07:29:50.414Z,1603.13
2019-06-20T07:30:50.409Z,815.63
2019-06-20T07:31:50.417Z,832.50
2019-06-20T07:32:50.406Z,888.75
2019-06-20T07:33:50.403Z,1018.13
2019-06-20T07:34:50.401Z,1462.50
2019-06-20T07:35:50.396Z,1141.88
2019-06-20T07:36:50.394Z,1833.75
2019-06-20T07:37:50.399Z,821.25
2019-06-20T07:38:50.419Z,804.38
2019-06-20T07:39:50.387Z,1794.38
2019-06-20T07:40:50.402Z,798.75
2019-06-20T07:41:50.389Z,793.13
2019-06-20T07:42:50.382Z,967.50
2019-06-20T07:43:50.417Z,1108.13
2019-06-20T07:44:50.383Z,3082.50
2019-06-20T07:46:02.183Z,2655.00
2019-06-20T07:46:50.371Z,1091.25
2019-06-20T07:47:50.379Z,933.75
2019-06-20T07:48:50.386Z,933.75
2019-06-20T07:49:50.369Z,1023.75
2019-06-20T07:50:50.363Z,1198.13
2019-06-20T07:51:50.370Z,1085.63
2019-06-20T07:53:01.357Z,2885.63
2019-06-20T07:53:50.382Z,2120.63
2019-06-20T07:54:50.358Z,798.75
2019-06-20T07:55:50.358Z,697.50
2019-06-20T07:56:50.356Z,680.63
2019-06-20T07:57:50.357Z,731.25
2019-06-20T07:58:50.351Z,663.75
2019-06-20T07:59:50.349Z,2328.75
2019-06-20T08:00:50.348Z,371.25
2019-06-20T08:01:50.346Z,320.63
2019-06-20T08:02:50.343Z,326.25
2019-06-20T08:03:50.349Z,382.50
2019-06-20T08:04:50.339Z,478.13
2019-06-20T08:05:50.339Z,523.13
2019-06-20T08:06:50.333Z,618.75
2019-06-20T08:07:50.335Z,765.00
2019-06-20T08:08:50.330Z,956.25
2019-06-20T08:09:50.325Z,3121.88
2019-06-20T08:10:50.322Z,3706.88
2019-06-20T08:11:50.320Z,3836.25
2019-06-20T08:12:50.316Z,3695.63
2019-06-20T08:13:50.315Z,1845.00
2019-06-20T08:14:50.315Z,1659.38
2019-06-20T08:15:50.315Z,1316.25
2019-06-20T08:16:50.315Z,1147.50
2019-06-20T08:17:50.312Z,1687.50
2019-06-20T08:18:50.311Z,1833.75
2019-06-20T08:19:50.328Z,1642.50
2019-06-20T08:20:50.315Z,1687.50
2019-06-20T08:21:50.311Z,1518.75
2019-06-20T08:22:50.316Z,1507.50
2019-06-20T08:23:50.311Z,1440.00
2019-06-20T08:24:50.314Z,1372.50
2019-06-20T08:25:50.311Z,1687.50
2019-06-20T08:26:50.334Z,1895.63
2019-06-20T08:27:50.311Z,1805.63
2019-06-20T08:29:07.104Z,2452.50
2019-06-20T08:29:50.311Z,3386.25
2019-06-20T08:30:50.312Z,3639.38
2019-06-20T08:31:50.315Z,3690.00
2019-06-20T08:32:50.315Z,3594.38
2019-06-20T08:33:50.317Z,3178.13
2019-06-20T08:34:50.329Z,2520.00
2019-06-20T08:35:50.323Z,3330.00
2019-06-20T08:36:50.327Z,3656.25
2019-06-20T08:37:50.331Z,3555.00
2019-06-20T08:38:50.335Z,3228.75
2019-06-20T08:39:50.342Z,2784.38
2019-06-20T08:40:50.346Z,3161.25
2019-06-20T08:41:50.360Z,2176.88
2019-06-20T08:42:50.357Z,2340.00
2019-06-20T08:43:50.362Z,1788.75
2019-06-20T08:44:50.368Z,1991.25
2019-06-20T08:45:50.375Z,2520.00
2019-06-20T08:46:50.378Z,3076.88
2019-06-20T08:47:50.383Z,2896.88
2019-06-20T08:48:50.389Z,1732.50
2019-06-20T08:49:50.394Z,1575.00
2019-06-20T08:50:50.401Z,3324.38
2019-06-20T08:51:50.407Z,3538.13
2019-06-20T08:52:50.410Z,3420.00
2019-06-20T08:53:50.420Z,3813.75
2019-06-20T08:54:50.421Z,3971.25
2019-06-20T08:55:50.447Z,3555.00
2019-06-20T08:56:50.436Z,3273.75
2019-06-20T08:57:50.448Z,2250.00
2019-06-20T08:58:50.449Z,1963.13
2019-06-20T08:59:50.457Z,1636.88
2019-06-20T09:00:50.462Z,1558.13
2019-06-20T09:01:50.467Z,1299.38
2019-06-20T09:02:50.472Z,1108.13
2019-06-20T09:03:50.523Z,945.00
2019-06-20T09:04:50.484Z,860.63
2019-06-20T09:05:50.488Z,871.88
2019-06-20T09:06:50.497Z,900.00
2019-06-20T09:07:50.504Z,905.63
2019-06-20T09:08:50.501Z,978.75
2019-06-20T09:09:50.500Z,1063.13
2019-06-20T09:10:50.502Z,1136.25
2019-06-20T09:11:50.505Z,1203.75
2019-06-20T09:12:50.518Z,1243.13
2019-06-20T09:13:50.510Z,1248.75
2019-06-20T09:14:50.511Z,1344.38
2019-06-20T09:15:50.513Z,1603.13
2019-06-20T09:16:50.513Z,1468.13
2019-06-20T09:17:50.546Z,1170.00
2019-06-20T09:18:53.211Z,1091.25
2019-06-20T09:19:51.661Z,1271.25
2019-06-20T09:20:52.744Z,1327.50
2019-06-20T09:21:52.594Z,1361.25
2019-06-20T09:22:50.517Z,2458.13
2019-06-20T09:23:52.387Z,1715.63
2019-06-20T09:24:50.517Z,2075.63
2019-06-20T09:25:50.928Z,3543.75
2019-06-20T09:26:51.195Z,2688.75
2019-06-20T09:27:52.686Z,1642.50
2019-06-20T09:28:51.040Z,1366.88
2019-06-20T09:29:51.578Z,1833.75
2019-06-20T09:30:51.889Z,2205.00
2019-06-20T09:31:52.480Z,1777.50
2019-06-20T09:32:52.219Z,1305.00
2019-06-20T09:33:52.124Z,1327.50
2019-06-20T09:34:51.823Z,1642.50
2019-06-20T09:35:52.147Z,1321.88
2019-06-20T09:36:52.024Z,1203.75
2019-06-20T09:37:50.865Z,1001.25
2019-06-20T09:38:50.650Z,810.00
2019-06-20T09:39:51.743Z,821.25
2019-06-20T09:40:51.894Z,528.75
2019-06-20T09:41:51.635Z,326.25
2019-06-20T09:42:51.691Z,241.88
2019-06-20T09:43:51.551Z,225.00
2019-06-20T09:44:52.349Z,315.00
2019-06-20T09:45:51.354Z,416.25
2019-06-20T09:46:51.158Z,461.25
2019-06-20T09:47:52.042Z,455.63
2019-06-20T09:48:51.088Z,427.50
2019-06-20T09:49:53.474Z,433.13
2019-06-20T09:50:51.637Z,461.25
2019-06-20T09:51:50.515Z,478.13
2019-06-20T09:52:51.596Z,461.25
2019-06-20T09:53:51.794Z,421.88
2019-06-20T09:54:51.641Z,376.88
2019-06-20T09:55:51.651Z,326.25
2019-06-20T09:56:53.507Z,275.63
2019-06-20T09:57:51.901Z,253.13
2019-06-20T09:58:51.145Z,264.38
2019-06-20T10:00:02.718Z,275.63
2019-06-20T10:00:50.859Z,292.50
2019-06-20T10:01:51.455Z,303.75
2019-06-20T10:02:52.115Z,315.00
2019-06-20T10:03:50.601Z,331.88
2019-06-20T10:04:50.709Z,337.50
2019-06-20T10:05:50.734Z,326.25
2019-06-20T10:06:50.463Z,298.13
2019-06-20T10:07:50.558Z,258.75
2019-06-20T10:08:50.457Z,225.00
2019-06-20T10:09:50.452Z,213.75
2019-06-20T10:10:51.052Z,213.75
2019-06-20T10:11:51.840Z,208.13
2019-06-20T10:12:51.667Z,196.88
2019-06-20T10:13:50.440Z,185.63
2019-06-20T10:14:51.510Z,168.75
2019-06-20T10:15:51.501Z,151.88
2019-06-20T10:16:52.218Z,146.25
2019-06-20T10:17:50.414Z,163.13
2019-06-20T10:18:50.410Z,168.75
2019-06-20T10:19:50.422Z,202.50
2019-06-20T10:20:51.128Z,241.88
2019-06-20T10:21:51.848Z,292.50
2019-06-20T10:22:50.978Z,343.13
2019-06-20T10:23:51.853Z,376.88
2019-06-20T10:24:51.302Z,410.63
2019-06-20T10:25:51.520Z,438.75
2019-06-20T10:26:51.530Z,466.88
2019-06-20T10:27:51.380Z,495.00
2019-06-20T10:28:51.433Z,540.00
2019-06-20T10:29:51.075Z,601.88
2019-06-20T10:30:51.086Z,708.75
2019-06-20T10:31:50.834Z,832.50
2019-06-20T10:32:51.016Z,956.25
2019-06-20T10:33:50.910Z,1068.75
2019-06-20T10:34:50.642Z,1119.38
2019-06-20T10:35:50.421Z,1108.13
2019-06-20T10:36:50.329Z,1063.13
2019-06-20T10:37:50.482Z,978.75
2019-06-20T10:38:50.445Z,883.13
2019-06-20T10:39:50.317Z,804.38
2019-06-20T10:40:50.315Z,748.13
2019-06-20T10:41:50.402Z,703.13
2019-06-20T10:42:50.368Z,630.00
2019-06-20T10:43:51.654Z,534.38
2019-06-20T10:44:50.321Z,444.38
2019-06-20T10:45:50.299Z,382.50
2019-06-20T10:46:51.437Z,343.13
2019-06-20T10:47:50.922Z,326.25
2019-06-20T10:48:50.287Z,326.25
2019-06-20T10:49:50.442Z,331.88
2019-06-20T10:50:50.279Z,337.50
2019-06-20T10:51:50.279Z,331.88
2019-06-20T10:52:51.724Z,315.00
2019-06-20T10:53:51.419Z,292.50
2019-06-20T10:54:51.416Z,270.00
2019-06-20T10:55:51.169Z,241.88
2019-06-20T10:56:51.036Z,202.50
2019-06-20T10:57:51.728Z,168.75
2019-06-20T10:58:50.709Z,135.00
2019-06-20T10:59:50.911Z,118.13
2019-06-20T11:00:50.473Z,106.88
2019-06-20T11:01:50.718Z,101.25
2019-06-20T11:02:51.266Z,95.63
2019-06-20T11:03:50.227Z,95.63
2019-06-20T11:04:50.223Z,95.63
2019-06-20T11:05:50.219Z,95.63
2019-06-20T11:06:50.224Z,101.25
2019-06-20T11:07:50.229Z,118.13
2019-06-20T11:08:50.203Z,157.50
2019-06-20T11:09:50.198Z,202.50
2019-06-20T11:10:50.199Z,241.88
2019-06-20T11:11:50.187Z,275.63
2019-06-20T11:12:55.663Z,309.38
2019-06-20T11:13:50.182Z,343.13
2019-06-20T11:14:50.200Z,382.50
2019-06-20T11:15:50.219Z,450.00
2019-06-20T11:16:50.162Z,489.38
2019-06-20T11:17:50.157Z,528.75
2019-06-20T11:18:50.163Z,528.75
2019-06-20T11:19:50.148Z,495.00
2019-06-20T11:20:50.146Z,450.00
2019-06-20T11:21:50.138Z,450.00
2019-06-20T11:22:50.135Z,500.63
2019-06-20T11:23:50.128Z,562.50
2019-06-20T11:24:50.123Z,596.25
2019-06-20T11:25:50.137Z,663.75
2019-06-20T11:26:50.115Z,781.88
2019-06-20T11:27:50.120Z,916.88
2019-06-20T11:28:50.107Z,1018.13
2019-06-20T11:29:50.100Z,1125.00
2019-06-20T11:30:58.092Z,1248.75
2019-06-20T11:31:50.091Z,1372.50
2019-06-20T11:32:50.087Z,1456.88
2019-06-20T11:33:50.087Z,1361.25
2019-06-20T11:34:50.083Z,1248.75
2019-06-20T11:35:50.074Z,1209.38
2019-06-20T11:36:50.085Z,1243.13
2019-06-20T11:37:50.069Z,1265.63
2019-06-20T11:38:50.063Z,1316.25
2019-06-20T11:39:51.348Z,1338.75
2019-06-20T11:40:50.058Z,1170.00
2019-06-20T11:41:50.056Z,1091.25
2019-06-20T11:42:50.051Z,978.75
2019-06-20T11:43:50.048Z,860.63
2019-06-20T11:44:50.046Z,753.75
2019-06-20T11:45:50.045Z,691.88
2019-06-20T11:46:50.040Z,618.75
2019-06-20T11:47:50.040Z,540.00
2019-06-20T11:48:50.034Z,511.88
2019-06-20T11:49:50.037Z,511.88
2019-06-20T11:50:50.051Z,551.25
2019-06-20T11:51:50.023Z,658.13
2019-06-20T11:52:50.026Z,770.63
2019-06-20T11:53:50.016Z,832.50
2019-06-20T11:54:50.072Z,849.38
2019-06-20T11:55:50.016Z,838.13
2019-06-20T11:56:50.009Z,832.50
2019-06-20T11:57:50.010Z,742.50
2019-06-20T11:58:50.001Z,658.13
2019-06-20T11:59:49.994Z,573.75
2019-06-20T12:01:03.248Z,523.13
2019-06-20T12:01:51.231Z,573.75
2019-06-20T12:02:50.317Z,646.88
2019-06-20T12:03:49.977Z,680.63
2019-06-20T12:04:49.974Z,731.25
2019-06-20T12:05:49.969Z,843.75
2019-06-20T12:06:49.964Z,928.13
2019-06-20T12:07:50.238Z,978.75
2019-06-20T12:08:49.957Z,995.63
2019-06-20T12:09:51.122Z,956.25
2019-06-20T12:10:49.947Z,866.25
2019-06-20T12:11:49.944Z,770.63
2019-06-20T12:12:49.938Z,736.88
2019-06-20T12:13:49.935Z,748.13
2019-06-20T12:14:49.930Z,781.88
2019-06-20T12:15:49.935Z,838.13
2019-06-20T12:16:49.922Z,950.63
2019-06-20T12:17:49.956Z,1035.00
2019-06-20T12:18:49.911Z,1035.00
2019-06-20T12:19:49.924Z,1029.38
2019-06-20T12:20:49.905Z,995.63
2019-06-20T12:21:49.904Z,911.25
2019-06-20T12:22:50.818Z,821.25
2019-06-20T12:23:49.888Z,821.25
2019-06-20T12:24:49.886Z,928.13
2019-06-20T12:25:49.880Z,1012.50
2019-06-20T12:26:49.875Z,1012.50
2019-06-20T12:27:49.981Z,995.63
2019-06-20T12:28:49.871Z,1018.13
2019-06-20T12:29:49.862Z,1040.63
2019-06-20T12:30:50.448Z,1057.50
2019-06-20T12:31:49.855Z,1018.13
2019-06-20T12:32:49.849Z,973.13
2019-06-20T12:33:49.845Z,945.00
2019-06-20T12:34:49.838Z,922.50
2019-06-20T12:35:49.834Z,894.38
2019-06-20T12:36:49.831Z,871.88
2019-06-20T12:37:50.206Z,883.13
2019-06-20T12:38:50.904Z,961.88
2019-06-20T12:39:49.816Z,1023.75